Time;durP1;ratioP1;P1;durP2;ratioP2;P2;SDS_P1;SDS_P2;PMS_P1;PMS_P2;Temp;Humidity;BMP_temperature;BMP_pressure;BME280_temperature;BME280_humidity;BME280_pressure;Samples;Min_cycle;Max_cycle;Signal;HPM_P1;HPM_P2
2021/10/19 00:00:34;;;;;;;4.78;3.90;;;;;;;18.11;66.77;101834.38;4897929;29;20064;-83
2021/10/19 00:03:05;;;;;;;5.95;3.80;;;;;;;18.11;66.95;101840.44;4898085;29;20127;-81
2021/10/19 00:05:31;;;;;;;4.65;3.67;;;;;;;18.13;66.83;101841.31;4881520;29;20029;-85
2021/10/19 00:08:36;;;;;;;3.95;3.50;;;;;;;18.14;67.20;101834.38;4881037;29;20125;-81
2021/10/19 00:11:08;;;;;;;3.65;3.33;;;;;;;18.13;67.06;101836.13;4828863;29;20570;-80
2021/10/19 00:13:57;;;;;;;4.35;3.80;;;;;;;18.14;66.68;101834.38;4824957;29;20041;-80
2021/10/19 00:16:50;;;;;;;3.90;3.50;;;;;;;18.14;66.67;101848.28;4824852;29;20041;-79
2021/10/19 00:19:18;;;;;;;4.33;3.70;;;;;;;18.14;66.74;101848.28;4825834;29;20601;-79
2021/10/19 00:24:37;;;;;;;4.07;3.67;;;;;;;18.15;66.80;101829.19;4822740;29;20510;-79
2021/10/19 00:27:09;;;;;;;4.18;3.60;;;;;;;18.15;66.87;101831.78;4824723;29;20080;-80
2021/10/19 00:29:35;;;;;;;4.35;3.50;;;;;;;18.16;66.93;101823.13;4811105;29;20065;-79
2021/10/19 00:32:03;;;;;;;3.90;3.50;;;;;;;18.16;66.80;101817.91;4840265;29;20491;-82
2021/10/19 00:34:34;;;;;;;3.63;3.22;;;;;;;18.18;66.96;101820.50;4833386;29;20460;-82
2021/10/19 00:37:03;;;;;;;3.78;3.40;;;;;;;18.17;66.98;101813.56;4881783;29;20470;-83
2021/10/19 00:39:28;;;;;;;4.03;3.63;;;;;;;18.17;67.04;101805.75;4880867;29;20124;-81
2021/10/19 00:41:54;;;;;;;3.20;2.90;;;;;;;18.19;66.89;101817.03;4880965;29;20060;-82
2021/10/19 00:44:19;;;;;;;3.95;3.45;;;;;;;18.18;67.00;101817.88;4865385;29;20028;-82
2021/10/19 00:46:44;;;;;;;3.80;3.40;;;;;;;18.19;66.84;101817.03;4881098;29;20535;-83
2021/10/19 00:49:10;;;;;;;4.10;3.33;;;;;;;18.19;66.87;101815.28;4881157;29;20485;-81
2021/10/19 00:51:36;;;;;;;3.63;3.28;;;;;;;18.20;66.83;101814.41;4881289;29;20462;-80
2021/10/19 00:54:02;;;;;;;4.00;3.38;;;;;;;18.19;67.02;101791.00;4881195;29;20032;-80
2021/10/19 00:56:28;;;;;;;3.80;3.40;;;;;;;18.20;67.08;101785.75;4900503;29;20390;-83
2021/10/19 00:58:55;;;;;;;3.60;3.20;;;;;;;18.20;67.00;101790.09;4900964;29;20024;-83
2021/10/19 01:01:26;;;;;;;5.35;3.10;;;;;;;18.20;66.91;101785.75;4899579;29;20160;-80
2021/10/19 01:03:57;;;;;;;3.63;3.20;;;;;;;18.21;66.91;101779.69;4899940;29;20045;-83
2021/10/19 01:06:27;;;;;;;4.25;3.20;;;;;;;18.21;67.13;101771.88;4884589;29;20426;-84
2021/10/19 01:08:53;;;;;;;3.42;3.13;;;;;;;18.22;66.76;101767.53;4898420;29;20032;-84
2021/10/19 01:11:24;;;;;;;3.90;3.50;;;;;;;18.20;66.84;101761.44;4883920;29;20474;-84
2021/10/19 01:14:04;;;;;;;4.13;3.25;;;;;;;18.20;67.00;101757.09;4899418;29;20032;-85
2021/10/19 01:16:43;;;;;;;3.88;2.95;;;;;;;18.22;66.76;101765.78;4884492;29;20039;-84
2021/10/19 01:19:11;;;;;;;3.65;3.03;;;;;;;18.20;66.91;101758.84;4869614;29;20034;-85
2021/10/19 01:21:40;;;;;;;3.92;3.38;;;;;;;18.20;66.89;101751.88;4868654;29;20537;-84
2021/10/19 01:24:08;;;;;;;4.10;3.13;;;;;;;18.19;66.99;101749.31;4900607;29;20039;-81
2021/10/19 01:26:34;;;;;;;5.22;3.42;;;;;;;18.20;67.02;101751.88;4899733;29;20116;-83
2021/10/19 01:29:02;;;;;;;4.65;3.40;;;;;;;18.20;66.96;101749.28;4867664;29;20131;-82
2021/10/19 01:31:30;;;;;;;3.20;2.90;;;;;;;18.21;66.92;101740.63;4867745;29;20087;-83
2021/10/19 01:33:58;;;;;;;3.40;3.10;;;;;;;18.21;66.92;101738.03;4883621;29;20033;-81
2021/10/19 01:36:23;;;;;;;4.22;3.20;;;;;;;18.19;66.93;101734.53;4883736;29;20033;-83
2021/10/19 01:38:49;;;;;;;3.97;3.58;;;;;;;18.20;66.86;101735.41;4867993;29;20080;-81
2021/10/19 01:41:14;;;;;;;3.80;3.17;;;;;;;18.19;66.81;101731.94;4883449;29;20032;-81
2021/10/19 01:43:42;;;;;;;4.18;3.28;;;;;;;18.19;67.07;101725.84;4867327;29;20048;-83
2021/10/19 01:46:10;;;;;;;3.58;3.17;;;;;;;18.19;67.16;101721.50;4883315;29;20025;-84
2021/10/19 01:48:40;;;;;;;3.08;2.72;;;;;;;18.20;67.12;101720.63;4883520;29;20047;-84
2021/10/19 01:51:11;;;;;;;3.53;3.20;;;;;;;18.19;67.21;101725.84;4900043;29;20029;-81
2021/10/19 01:53:39;;;;;;;3.75;3.20;;;;;;;18.21;67.32;101722.38;4883347;29;20102;-83
2021/10/19 01:56:11;;;;;;;3.33;3.03;;;;;;;18.20;67.07;101718.03;4883415;29;20088;-83
2021/10/19 01:58:42;;;;;;;5.38;3.08;;;;;;;18.19;67.10;101716.31;4899013;29;20405;-85
2021/10/19 02:01:11;;;;;;;4.57;3.22;;;;;;;18.19;67.19;101716.31;4867238;29;20116;-85
2021/10/19 02:03:38;;;;;;;3.42;3.00;;;;;;;18.20;67.09;101715.41;4882719;29;20068;-84
2021/10/19 02:06:34;;;;;;;4.00;3.17;;;;;;;18.19;67.22;101710.22;4882045;29;20040;-83
2021/10/19 02:08:59;;;;;;;3.80;2.90;;;;;;;18.20;67.30;101718.03;4867192;29;20041;-83
2021/10/19 02:11:28;;;;;;;3.38;3.08;;;;;;;18.20;67.18;101731.06;4882967;29;20095;-80
2021/10/19 02:14:03;;;;;;;3.20;2.90;;;;;;;18.20;67.10;101727.59;4867409;29;20036;-80
2021/10/19 02:16:42;;;;;;;3.28;2.97;;;;;;;18.19;67.31;101725.84;4898277;29;20040;-80
2021/10/19 02:19:10;;;;;;;3.58;3.28;;;;;;;18.20;66.79;101719.78;4882044;29;20036;-80
2021/10/19 02:21:56;;;;;;;3.63;3.22;;;;;;;18.19;67.23;101716.31;4899601;29;20407;-82
2021/10/19 02:24:28;;;;;;;3.97;3.10;;;;;;;18.21;67.25;101717.19;4899692;29;20472;-81
2021/10/19 02:27:02;;;;;;;4.28;3.00;;;;;;;18.20;67.09;101711.94;4882422;29;20470;-84
2021/10/19 02:29:27;;;;;;;3.40;3.10;;;;;;;18.20;67.41;101719.78;4898056;29;20028;-83
2021/10/19 02:31:53;;;;;;;3.85;3.30;;;;;;;18.20;66.97;101722.38;4882617;29;20533;-84
2021/10/19 02:34:19;;;;;;;3.88;3.45;;;;;;;18.20;67.10;101715.41;4882476;29;20088;-84
2021/10/19 02:36:45;;;;;;;3.72;3.20;;;;;;;18.20;67.12;101707.59;4898047;29;20461;-84
2021/10/19 02:39:10;;;;;;;3.42;3.00;;;;;;;18.20;67.50;101705.00;4882479;29;20060;-83
2021/10/19 02:41:37;;;;;;;3.60;3.30;;;;;;;18.20;67.34;101699.78;4866993;29;20039;-81
2021/10/19 02:44:04;;;;;;;3.30;3.00;;;;;;;18.19;67.14;101692.84;4882150;29;20470;-82
2021/10/19 02:46:31;;;;;;;3.58;2.90;;;;;;;18.20;67.05;101693.72;4866928;29;20065;-79
2021/10/19 02:48:57;;;;;;;3.45;3.15;;;;;;;18.21;66.98;101696.34;4867650;29;20435;-84
2021/10/19 02:51:23;;;;;;;4.05;2.95;;;;;;;18.20;67.46;101688.50;4882334;29;20064;-83
2021/10/19 02:53:48;;;;;;;3.72;3.30;;;;;;;18.20;66.98;101683.28;4866895;29;20036;-81
2021/10/19 02:56:13;;;;;;;3.38;3.08;;;;;;;18.20;67.00;101667.66;4851437;29;20080;-83
2021/10/19 02:58:39;;;;;;;3.70;3.10;;;;;;;18.19;67.02;101653.78;4851859;29;20124;-83
2021/10/19 03:01:04;;;;;;;4.55;3.10;;;;;;;18.20;67.12;101659.84;4866880;29;20092;-82
2021/10/19 03:03:30;;;;;;;3.85;3.20;;;;;;;18.20;67.16;101659.84;4867000;29;20147;-83
2021/10/19 03:05:55;;;;;;;3.70;3.22;;;;;;;18.20;67.07;101650.28;4882026;29;20036;-80
2021/10/19 03:08:22;;;;;;;3.55;3.25;;;;;;;18.19;67.10;101653.78;4851197;29;20525;-83
2021/10/19 03:10:48;;;;;;;3.50;3.20;;;;;;;18.20;67.00;101652.91;4851663;29;20052;-83
2021/10/19 03:13:14;;;;;;;3.63;3.33;;;;;;;18.19;67.15;101651.16;4897849;29;20359;-83
2021/10/19 03:15:39;;;;;;;3.30;2.88;;;;;;;18.20;67.20;101652.03;4866555;29;20032;-83
2021/10/19 03:18:05;;;;;;;3.40;3.10;;;;;;;18.20;66.92;101639.00;4866408;29;20037;-83
2021/10/19 03:20:36;;;;;;;3.35;3.05;;;;;;;18.21;67.08;101648.56;4881935;29;20029;-82
2021/10/19 03:23:27;;;;;;;3.55;3.03;;;;;;;18.20;67.24;101639.88;4881777;29;20028;-84
2021/10/19 03:25:52;;;;;;;3.50;3.20;;;;;;;18.20;67.01;101642.47;4825638;29;20139;-84
2021/10/19 03:28:18;;;;;;;3.80;3.25;;;;;;;18.20;67.20;101649.44;4810378;29;20038;-83
2021/10/19 03:30:43;;;;;;;3.45;3.10;;;;;;;18.21;67.06;101657.25;4825640;29;20129;-82
2021/10/19 03:33:09;;;;;;;3.72;3.20;;;;;;;18.20;67.16;101659.84;4825948;29;20138;-82
2021/10/19 03:35:35;;;;;;;3.55;2.97;;;;;;;18.21;67.39;101670.28;4795658;29;20547;-81
2021/10/19 03:38:00;;;;;;;3.47;3.17;;;;;;;18.21;67.20;101665.06;4825548;29;20042;-82
2021/10/19 03:40:26;;;;;;;3.85;3.30;;;;;;;18.21;67.20;101665.06;4810438;29;20034;-84
2021/10/19 03:42:51;;;;;;;3.30;2.80;;;;;;;18.20;67.21;101662.47;4825815;29;20088;-82
2021/10/19 03:45:17;;;;;;;3.28;2.97;;;;;;;18.20;67.22;101660.72;4840837;29;20035;-84
2021/10/19 03:48:09;;;;;;;3.38;3.08;;;;;;;18.20;67.01;101652.03;4840771;29;20049;-82
2021/10/19 03:50:53;;;;;;;3.30;3.00;;;;;;;18.20;67.12;101658.09;4862132;29;20066;-84
2021/10/19 03:53:25;;;;;;;3.38;3.08;;;;;;;18.20;67.16;101662.47;4881602;29;20381;-82
2021/10/19 03:56:17;;;;;;;3.50;3.15;;;;;;;18.21;67.21;101667.69;4880013;29;20041;-82
2021/10/19 03:59:13;;;;;;;3.72;3.13;;;;;;;18.20;67.06;101665.91;4895608;29;20068;-83
2021/10/19 04:02:08;;;;;;;3.28;2.97;;;;;;;18.20;66.99;101667.66;4867885;29;20037;-82
2021/10/19 04:05:01;;;;;;;3.85;2.80;;;;;;;18.21;67.54;101662.47;4855690;29;20490;-83
2021/10/19 04:07:30;;;;;;;3.30;3.00;;;;;;;18.20;66.97;101671.13;4862736;29;20029;-85
2021/10/19 04:09:55;;;;;;;3.42;3.10;;;;;;;18.21;67.29;101670.28;4878214;29;20036;-85
2021/10/19 04:12:21;;;;;;;3.17;2.88;;;;;;;18.20;66.92;101668.53;4862958;29;20398;-84
2021/10/19 04:14:49;;;;;;;3.30;2.78;;;;;;;18.21;67.14;101665.06;4868044;29;20049;-90
2021/10/19 04:17:23;;;;;;;3.30;3.00;;;;;;;18.21;67.49;101665.06;4851823;29;20036;-92
2021/10/19 04:19:48;;;;;;;4.07;3.10;;;;;;;18.20;66.93;101658.09;4879704;29;20028;-91
2021/10/19 04:22:14;;;;;;;3.40;3.10;;;;;;;18.20;67.05;101662.47;4848265;29;20039;-88
2021/10/19 04:24:41;;;;;;;3.78;3.03;;;;;;;18.22;67.11;101665.94;4863221;29;20041;-89
2021/10/19 04:27:06;;;;;;;3.10;2.80;;;;;;;18.22;67.06;101671.16;4848323;29;20104;-89
2021/10/19 04:29:32;;;;;;;3.35;2.80;;;;;;;18.22;66.94;101671.16;4863858;29;20029;-89
2021/10/19 04:31:58;;;;;;;3.28;2.97;;;;;;;18.22;66.75;101664.19;4867291;29;20033;-89
2021/10/19 04:34:23;;;;;;;3.63;3.03;;;;;;;18.22;67.14;101660.72;4867032;29;20075;-88
2021/10/19 04:36:48;;;;;;;4.38;2.90;;;;;;;18.20;67.08;101642.47;4851619;29;20037;-88
2021/10/19 04:39:14;;;;;;;3.67;2.95;;;;;;;18.20;66.88;101634.66;4866954;29;20025;-88
2021/10/19 04:41:44;;;;;;;3.22;2.90;;;;;;;18.22;66.73;101645.09;4836222;29;20035;-87
2021/10/19 04:44:10;;;;;;;3.47;3.10;;;;;;;18.22;67.34;101648.56;4882345;29;20073;-88
2021/10/19 04:46:36;;;;;;;2.95;2.70;;;;;;;18.23;66.89;101646.84;4882455;29;20442;-88
2021/10/19 04:49:04;;;;;;;3.03;2.72;;;;;;;18.22;66.68;101639.88;4866685;29;20119;-89
2021/10/19 04:51:29;;;;;;;3.00;2.70;;;;;;;18.22;67.05;101645.94;4852270;29;20493;-89
2021/10/19 04:53:56;;;;;;;3.30;2.55;;;;;;;18.23;67.30;101636.44;4852293;29;20033;-89
2021/10/19 04:56:25;;;;;;;3.13;2.75;;;;;;;18.20;67.13;101619.03;4890066;29;20036;-88
2021/10/19 04:58:50;;;;;;;3.08;2.78;;;;;;;18.21;67.36;101615.56;4858546;29;20029;-89
2021/10/19 05:01:15;;;;;;;3.58;2.75;;;;;;;18.21;66.73;101612.97;4886375;29;20377;-92
2021/10/19 05:03:46;;;;;;;2.88;2.60;;;;;;;18.22;66.95;101619.03;4894608;29;20084;-89
2021/10/19 05:06:11;;;;;;;3.45;3.05;;;;;;;18.23;67.27;101615.59;4885695;29;20087;-88
2021/10/19 05:08:37;;;;;;;3.40;3.10;;;;;;;18.22;66.83;101606.00;4854125;29;20037;-89
2021/10/19 05:11:02;;;;;;;3.50;2.75;;;;;;;18.23;67.13;101607.75;4885273;29;20028;-90
2021/10/19 05:13:28;;;;;;;3.40;2.85;;;;;;;18.21;66.81;101605.16;4869574;29;20470;-88
2021/10/19 05:15:53;;;;;;;2.88;2.58;;;;;;;18.23;66.87;101610.38;4884711;29;20597;-87
2021/10/19 05:18:18;;;;;;;3.50;2.67;;;;;;;18.22;67.08;101606.88;4869075;29;20036;-89
2021/10/19 05:20:44;;;;;;;3.05;2.75;;;;;;;18.22;67.56;101612.09;4885197;29;20084;-86
2021/10/19 05:23:09;;;;;;;7.57;3.33;;;;;;;18.28;67.37;101608.63;4868983;29;20051;-91
2021/10/19 05:25:35;;;;;;;11.95;3.50;;;;;;;18.32;67.54;101604.28;4853434;29;20116;-87
2021/10/19 05:28:00;;;;;;;7.78;3.55;;;;;;;18.28;67.40;101604.28;4868959;29;20485;-87
2021/10/19 05:30:26;;;;;;;14.10;3.30;;;;;;;18.27;67.38;101605.16;4853204;29;20028;-87
2021/10/19 05:32:51;;;;;;;5.78;3.45;;;;;;;18.26;67.51;101608.63;4868843;29;20044;-89
2021/10/19 05:35:17;;;;;;;8.13;3.40;;;;;;;18.26;67.24;101613.81;4900098;29;20115;-89
2021/10/19 05:37:42;;;;;;;5.13;3.53;;;;;;;18.26;67.11;101616.44;4868727;29;20462;-85
2021/10/19 05:40:08;;;;;;;6.32;3.63;;;;;;;18.26;67.00;101616.44;4884561;29;20462;-88
2021/10/19 05:42:34;;;;;;;5.63;3.60;;;;;;;18.25;67.07;101619.91;4883603;29;20036;-87
2021/10/19 05:44:59;;;;;;;5.05;3.10;;;;;;;18.25;67.18;101630.34;4853450;29;20482;-87
2021/10/19 05:47:24;;;;;;;3.58;3.05;;;;;;;18.24;67.16;101633.78;4884326;29;20039;-87
2021/10/19 05:49:50;;;;;;;4.18;3.22;;;;;;;18.25;67.05;101632.09;4852860;29;20081;-88
2021/10/19 05:52:18;;;;;;;4.90;3.33;;;;;;;18.24;67.01;101628.59;4883901;29;20500;-88
2021/10/19 05:54:44;;;;;;;3.30;3.00;;;;;;;18.25;66.73;101619.06;4868581;29;20115;-87
2021/10/19 05:57:09;;;;;;;3.92;2.80;;;;;;;18.25;66.83;101625.13;4883730;29;20573;-87
2021/10/19 05:59:34;;;;;;;6.13;2.92;;;;;;;18.24;66.79;101620.78;4899162;29;20111;-86
2021/10/19 06:02:00;;;;;;;4.32;3.08;;;;;;;18.25;66.64;101625.13;4868383;29;20044;-87
2021/10/19 06:04:27;;;;;;;3.80;3.08;;;;;;;18.25;66.96;101630.34;4867976;29;20052;-87
2021/10/19 06:06:56;;;;;;;3.40;3.00;;;;;;;18.24;66.77;101633.78;4899740;29;20434;-88
2021/10/19 06:09:22;;;;;;;3.10;2.80;;;;;;;18.26;66.81;101631.19;4883649;29;20032;-88
2021/10/19 06:11:48;;;;;;;4.03;2.80;;;;;;;18.25;66.76;101637.28;4868006;29;20405;-88
2021/10/19 06:14:13;;;;;;;4.45;3.05;;;;;;;18.25;66.76;101624.28;4868156;29;20035;-87
2021/10/19 06:16:39;;;;;;;3.75;2.97;;;;;;;18.25;66.79;101616.44;4867832;29;20036;-87
2021/10/19 06:19:04;;;;;;;3.45;2.90;;;;;;;18.24;66.94;101614.69;4868402;29;20033;-86
2021/10/19 06:21:29;;;;;;;6.43;2.92;;;;;;;18.23;66.64;101616.44;4899147;29;20043;-88
2021/10/19 06:23:55;;;;;;;4.30;2.88;;;;;;;18.24;66.64;101614.69;4852908;29;20047;-87
2021/10/19 06:26:20;;;;;;;3.20;2.90;;;;;;;18.26;67.05;101615.56;4868112;29;20047;-86
2021/10/19 06:28:45;;;;;;;3.38;3.00;;;;;;;18.25;66.54;101614.72;4883435;29;20064;-87
2021/10/19 06:31:12;;;;;;;3.40;2.80;;;;;;;18.25;66.59;101612.09;4883328;29;20498;-87
2021/10/19 06:33:37;;;;;;;3.03;2.72;;;;;;;18.26;66.55;101612.97;4867243;29;20089;-83
2021/10/19 06:36:04;;;;;;;3.30;2.80;;;;;;;18.25;66.63;101609.50;4898162;29;20025;-83
2021/10/19 06:38:30;;;;;;;4.93;2.65;;;;;;;18.28;66.57;101601.66;4898537;29;20149;-86
2021/10/19 06:40:55;;;;;;;3.72;2.70;;;;;;;18.34;66.42;101606.03;4882759;29;20486;-83
2021/10/19 06:43:20;;;;;;;6.35;2.65;;;;;;;18.37;66.11;101603.41;4867404;29;20550;-88
2021/10/19 06:45:46;;;;;;;5.82;2.60;;;;;;;18.38;66.09;101592.13;4852289;29;20064;-88
2021/10/19 06:48:11;;;;;;;3.67;2.60;;;;;;;18.39;66.10;101591.25;4883067;29;20025;-88
2021/10/19 06:50:37;;;;;;;3.30;2.60;;;;;;;18.41;65.97;101605.13;4883035;29;20085;-89
2021/10/19 06:53:03;;;;;;;7.88;2.58;;;;;;;18.43;66.04;101606.00;4851324;29;20084;-88
2021/10/19 06:55:28;;;;;;;4.65;2.60;;;;;;;18.44;66.05;101610.38;4898421;29;20029;-88
2021/10/19 06:57:55;;;;;;;3.85;2.45;;;;;;;18.46;65.93;101618.16;4867316;29;20029;-88
2021/10/19 07:00:20;;;;;;;3.10;2.42;;;;;;;18.48;66.09;101619.88;4867748;29;20509;-88
2021/10/19 07:02:46;;;;;;;4.40;2.55;;;;;;;18.50;65.98;101623.38;4852388;29;20059;-88
2021/10/19 07:05:15;;;;;;;4.38;2.85;;;;;;;18.52;66.10;101614.69;4867405;29;20052;-88
2021/10/19 07:07:41;;;;;;;3.80;2.83;;;;;;;18.53;66.27;101621.63;4851385;29;20040;-87
2021/10/19 07:10:07;;;;;;;5.57;2.50;;;;;;;18.54;66.02;101615.56;4899333;29;20029;-87
2021/10/19 07:12:36;;;;;;;2.70;2.20;;;;;;;18.55;66.06;101618.16;4867260;29;20039;-87
2021/10/19 07:15:02;;;;;;;2.53;2.28;;;;;;;18.56;66.06;101614.69;4852716;29;20111;-88
2021/10/19 07:17:27;;;;;;;2.40;2.00;;;;;;;18.57;66.04;101605.97;4867153;29;20073;-88
2021/10/19 07:19:53;;;;;;;5.15;2.42;;;;;;;18.59;66.04;101613.81;4882551;29;20032;-88
2021/10/19 07:22:19;;;;;;;6.57;2.58;;;;;;;18.60;66.05;101615.56;4882310;29;20029;-88
2021/10/19 07:24:45;;;;;;;3.38;2.22;;;;;;;18.60;65.85;101616.41;4851729;29;20037;-88
2021/10/19 07:27:10;;;;;;;2.88;2.40;;;;;;;18.60;66.01;101600.78;4882399;29;20041;-87
2021/10/19 07:29:35;;;;;;;2.83;2.42;;;;;;;18.62;65.83;101603.41;4866990;29;20032;-88
2021/10/19 07:32:01;;;;;;;2.45;2.20;;;;;;;18.61;65.77;101602.50;4851588;29;20029;-88
2021/10/19 07:34:26;;;;;;;2.50;2.20;;;;;;;18.63;66.03;101602.50;4866774;29;20027;-87
2021/10/19 07:36:53;;;;;;;2.40;2.10;;;;;;;18.65;65.91;101595.56;4866928;29;20029;-88
2021/10/19 07:39:18;;;;;;;2.60;2.33;;;;;;;18.65;66.14;101591.19;4882217;29;20028;-88
2021/10/19 07:41:44;;;;;;;4.75;2.20;;;;;;;18.66;65.92;101584.25;4867134;29;20354;-88
2021/10/19 07:44:09;;;;;;;2.83;2.15;;;;;;;18.65;65.88;101580.78;4867125;29;20056;-87
2021/10/19 07:46:35;;;;;;;2.63;2.28;;;;;;;18.67;65.94;101586.84;4866803;29;20052;-88
2021/10/19 07:49:02;;;;;;;2.78;2.17;;;;;;;18.68;65.61;101585.09;4866743;29;20028;-88
2021/10/19 07:51:27;;;;;;;2.45;2.20;;;;;;;18.68;65.76;101588.59;4898711;29;20545;-89
2021/10/19 07:53:53;;;;;;;3.45;2.10;;;;;;;18.68;65.83;101590.31;4867022;29;20028;-87
2021/10/19 07:56:20;;;;;;;2.28;2.00;;;;;;;18.69;65.97;101582.50;4866617;29;20036;-87
2021/10/19 07:58:48;;;;;;;2.10;1.90;;;;;;;18.68;65.62;101586.00;4882047;29;20119;-87
2021/10/19 08:01:15;;;;;;;2.70;2.20;;;;;;;18.67;65.95;101581.63;4882531;29;20083;-89
2021/10/19 08:03:40;;;;;;;4.03;2.20;;;;;;;18.67;65.96;101589.47;4882355;29;20655;-90
2021/10/19 08:06:06;;;;;;;3.08;2.10;;;;;;;18.66;65.93;101592.97;4870231;29;20044;-88
2021/10/19 08:08:31;;;;;;;2.63;2.13;;;;;;;18.68;65.93;101590.31;4854854;29;20433;-87
2021/10/19 08:10:57;;;;;;;2.60;2.13;;;;;;;18.67;65.80;101592.06;4886267;29;20024;-89
2021/10/19 08:13:22;;;;;;;2.72;2.28;;;;;;;18.68;65.88;101590.31;4854680;29;20029;-89
2021/10/19 08:15:47;;;;;;;2.25;1.92;;;;;;;18.68;65.83;101591.22;4886113;29;20033;-89
2021/10/19 08:18:14;;;;;;;3.08;2.13;;;;;;;18.69;65.83;101584.25;4870136;29;20070;-87
2021/10/19 08:20:39;;;;;;;2.85;2.20;;;;;;;18.70;65.56;101581.66;4885880;29;20033;-88
2021/10/19 08:23:06;;;;;;;2.20;1.92;;;;;;;18.70;65.62;101586.88;4885326;29;20040;-87
2021/10/19 08:25:32;;;;;;;2.70;2.05;;;;;;;18.69;65.89;101585.13;4870093;29;20040;-88
2021/10/19 08:27:57;;;;;;;2.90;2.20;;;;;;;18.69;65.74;101590.31;4870320;29;20044;-88
2021/10/19 08:30:23;;;;;;;2.30;2.10;;;;;;;18.68;65.78;101583.41;4901238;29;20032;-87
2021/10/19 08:32:50;;;;;;;1.90;1.70;;;;;;;18.69;65.87;101586.84;4901241;29;20059;-86
2021/10/19 08:35:17;;;;;;;2.80;2.10;;;;;;;18.69;65.77;101586.84;4870044;29;20053;-87
2021/10/19 08:37:43;;;;;;;2.25;2.05;;;;;;;18.69;65.78;101589.47;4885696;29;20032;-87
2021/10/19 08:40:10;;;;;;;2.92;1.90;;;;;;;18.69;65.70;101587.72;4901491;29;20088;-87
2021/10/19 08:42:44;;;;;;;2.35;1.95;;;;;;;18.68;65.74;101580.78;4885147;29;20036;-88
2021/10/19 08:45:10;;;;;;;2.63;1.98;;;;;;;18.69;65.70;101584.25;4870629;29;20092;-88
2021/10/19 08:47:35;;;;;;;2.42;1.90;;;;;;;18.69;65.81;101582.50;4854894;29;20032;-88
2021/10/19 08:50:05;;;;;;;2.35;1.92;;;;;;;18.71;65.75;101577.28;4885451;29;20561;-88
2021/10/19 08:52:31;;;;;;;2.50;2.08;;;;;;;18.71;65.68;101572.94;4885061;29;20096;-87
2021/10/19 08:54:56;;;;;;;3.08;2.00;;;;;;;18.73;65.41;101572.94;4885116;29;20430;-88
2021/10/19 08:57:21;;;;;;;2.30;1.75;;;;;;;18.73;65.49;101574.66;4854208;29;20029;-88
2021/10/19 08:59:48;;;;;;;2.15;1.70;;;;;;;18.71;65.73;101580.75;4884996;29;20119;-87
2021/10/19 09:02:15;;;;;;;2.28;1.90;;;;;;;18.70;65.70;101573.84;4885039;29;20032;-86
2021/10/19 09:04:42;;;;;;;2.20;1.77;;;;;;;18.74;65.55;101582.50;4901533;29;20052;-85
2021/10/19 09:07:08;;;;;;;2.22;1.80;;;;;;;18.74;65.78;101586.84;4885669;29;20079;-91
2021/10/19 09:09:35;;;;;;;4.03;2.08;;;;;;;18.73;65.91;101583.38;4900424;29;20397;-87
2021/10/19 09:12:01;;;;;;;6.88;1.98;;;;;;;18.81;66.09;101578.16;4884817;29;20029;-87
2021/10/19 09:14:31;;;;;;;2.47;1.80;;;;;;;18.86;67.03;101579.03;4884168;29;20032;-85
2021/10/19 09:17:00;;;;;;;2.63;1.75;;;;;;;18.83;66.71;101581.63;4883754;29;20035;-86
2021/10/19 09:19:25;;;;;;;5.53;2.05;;;;;;;18.77;66.54;101585.13;4883967;29;20028;-85
2021/10/19 09:21:56;;;;;;;3.03;1.73;;;;;;;18.75;66.35;101585.97;4884302;29;20092;-84
2021/10/19 09:24:34;;;;;;;4.03;1.85;;;;;;;18.72;66.23;101581.63;4884817;29;20546;-86
2021/10/19 09:27:03;;;;;;;4.35;2.10;;;;;;;18.71;66.19;101585.97;4884414;29;20028;-88
2021/10/19 09:29:33;;;;;;;3.10;1.70;;;;;;;18.71;66.45;101585.97;4899789;29;20029;-84
2021/10/19 09:32:05;;;;;;;3.60;1.85;;;;;;;18.71;66.21;101582.50;4884073;29;20107;-85
2021/10/19 09:34:33;;;;;;;5.85;1.98;;;;;;;18.73;66.56;101579.88;4899594;29;20024;-85
2021/10/19 09:36:59;;;;;;;2.53;1.90;;;;;;;18.71;66.13;101583.38;4883883;29;20032;-84
2021/10/19 09:39:41;;;;;;;2.28;1.90;;;;;;;18.70;66.26;101586.88;4899166;29;20103;-84
2021/10/19 09:42:10;;;;;;;3.03;1.73;;;;;;;18.70;66.13;101586.88;4900554;29;20056;-81
2021/10/19 09:44:36;;;;;;;2.92;2.05;;;;;;;18.71;66.29;101587.72;4899303;29;20119;-84
2021/10/19 09:47:03;;;;;;;2.45;1.95;;;;;;;18.69;66.33;101589.47;4900684;29;20058;-84
2021/10/19 09:49:30;;;;;;;3.88;1.92;;;;;;;18.70;66.27;101593.78;4883883;29;20033;-85
2021/10/19 09:51:57;;;;;;;3.22;2.10;;;;;;;18.69;66.51;101592.06;4900548;29;20385;-82
2021/10/19 09:54:29;;;;;;;2.95;2.10;;;;;;;18.69;66.22;101585.13;4883457;29;20035;-83
2021/10/19 09:56:58;;;;;;;4.15;1.98;;;;;;;18.70;66.16;101585.97;4898751;29;20036;-81
2021/10/19 09:59:24;;;;;;;4.63;1.90;;;;;;;18.70;66.18;101581.66;4900217;29;20025;-84
2021/10/19 10:01:50;;;;;;;2.40;1.95;;;;;;;18.72;66.39;101594.66;4900190;29;20056;-85
2021/10/19 10:04:17;;;;;;;2.10;1.80;;;;;;;18.74;66.27;101576.41;4868336;29;20053;-85
2021/10/19 10:06:43;;;;;;;3.05;1.92;;;;;;;18.74;66.16;101574.66;4883283;29;20039;-82
2021/10/19 10:09:10;;;;;;;4.15;2.03;;;;;;;18.74;66.18;101587.72;4868013;29;20123;-85
2021/10/19 10:11:41;;;;;;;2.55;2.00;;;;;;;18.73;66.51;101582.50;4883610;29;20032;-81
2021/10/19 10:14:07;;;;;;;6.07;1.98;;;;;;;18.73;66.37;101586.00;4883612;29;20494;-82
2021/10/19 10:16:47;;;;;;;2.58;2.05;;;;;;;18.75;66.45;101583.34;4899207;29;20024;-82
2021/10/19 10:19:18;;;;;;;2.30;2.00;;;;;;;18.78;66.33;101570.34;4883042;29;20031;-84
2021/10/19 10:21:47;;;;;;;2.35;1.67;;;;;;;18.78;66.25;101578.19;4882892;29;20037;-83
2021/10/19 10:24:12;;;;;;;2.35;1.90;;;;;;;18.76;66.35;101579.88;4898652;29;20084;-80
2021/10/19 10:26:39;;;;;;;1.85;1.60;;;;;;;18.76;66.39;101569.47;4867476;29;20028;-84
2021/10/19 10:29:15;;;;;;;2.40;1.90;;;;;;;18.76;66.46;101570.31;4867122;29;20039;-82
2021/10/19 10:31:50;;;;;;;3.58;1.90;;;;;;;18.75;66.37;101579.03;4882869;29;20028;-80
2021/10/19 10:34:16;;;;;;;2.00;1.80;;;;;;;18.76;66.26;101574.69;4898796;29;20438;-80
2021/10/19 10:36:47;;;;;;;3.30;2.00;;;;;;;18.76;66.67;101577.28;4882906;29;20108;-85
2021/10/19 10:39:13;;;;;;;3.40;1.88;;;;;;;18.77;66.32;101573.78;4867772;29;20039;-83
2021/10/19 10:41:47;;;;;;;1.98;1.70;;;;;;;18.77;66.66;101579.00;4882614;29;20064;-82
2021/10/19 10:44:22;;;;;;;2.00;1.77;;;;;;;18.77;66.65;101577.28;4882337;29;20069;-86
2021/10/19 10:46:47;;;;;;;3.17;1.83;;;;;;;18.79;66.65;101579.91;4882799;29;20477;-87
2021/10/19 10:49:13;;;;;;;2.40;1.80;;;;;;;18.80;66.43;101581.66;4899297;29;20075;-85
2021/10/19 10:51:41;;;;;;;3.17;1.40;;;;;;;18.77;66.77;101574.69;4898286;29;20028;-86
2021/10/19 10:54:07;;;;;;;2.72;1.60;;;;;;;18.76;66.39;101580.75;4898018;29;20033;-86
2021/10/19 10:56:45;;;;;;;2.50;1.80;;;;;;;18.76;66.68;101574.69;4897898;29;20032;-86
2021/10/19 10:59:10;;;;;;;3.00;1.73;;;;;;;18.78;66.49;101572.97;4898189;29;20477;-86
2021/10/19 11:01:36;;;;;;;1.77;1.60;;;;;;;18.79;66.73;101569.47;4867133;29;20035;-85
2021/10/19 11:04:07;;;;;;;2.60;1.70;;;;;;;18.78;66.71;101563.41;4866742;29;20056;-86
2021/10/19 11:06:34;;;;;;;2.03;1.48;;;;;;;18.80;66.71;101563.41;4897692;29;20032;-86
2021/10/19 11:09:11;;;;;;;3.67;1.90;;;;;;;18.80;66.47;101560.78;4866952;29;20101;-84
2021/10/19 11:11:38;;;;;;;2.47;1.80;;;;;;;18.81;66.48;101560.75;4882379;29;20478;-85
2021/10/19 11:14:10;;;;;;;2.53;1.55;;;;;;;18.84;66.47;101557.31;4882268;29;20029;-85
2021/10/19 11:16:42;;;;;;;3.17;1.80;;;;;;;18.85;66.54;101554.66;4897735;29;20112;-86
2021/10/19 11:19:23;;;;;;;1.98;1.77;;;;;;;18.84;66.54;101554.69;4898884;29;20029;-88
2021/10/19 11:22:00;;;;;;;2.95;1.80;;;;;;;18.81;66.48;101549.47;4897681;29;20495;-87
2021/10/19 11:24:30;;;;;;;3.30;1.95;;;;;;;18.82;66.57;101557.31;4881825;29;20392;-89
2021/10/19 11:26:56;;;;;;;1.75;1.60;;;;;;;18.81;66.88;101557.28;4898719;29;20029;-84
2021/10/19 11:29:22;;;;;;;3.35;1.65;;;;;;;18.79;66.53;101562.53;4881944;29;20561;-86
2021/10/19 11:31:49;;;;;;;2.10;1.75;;;;;;;18.78;66.81;101555.56;4898658;29;20080;-86